Time;durP1;ratioP1;P1;durP2;ratioP2;P2;SDS_P1;SDS_P2;PMS_P1;PMS_P2;Temp;Humidity;BMP_temperature;BMP_pressure;BME280_temperature;BME280_humidity;BME280_pressure;Samples;Min_cycle;Max_cycle;Signal;HPM_P1;HPM_P2
2022/01/15 00:00:00;;;;;;;30.52;16.48;;;;;;;;;;4976249;28;20118;-84
2022/01/15 00:02:25;;;;;;;36.83;17.08;;;;;;;;;;4985124;28;20049;-84
2022/01/15 00:04:51;;;;;;;30.73;17.30;;;;;;;;;;4961043;28;20049;-84
2022/01/15 00:07:16;;;;;;;32.15;17.15;;;;;;;;;;4976044;28;20531;-84
2022/01/15 00:09:44;;;;;;;29.50;15.93;;;;;;;;;;4981567;28;20074;-81
2022/01/15 00:12:10;;;;;;;30.98;15.63;;;;;;;;;;4961245;28;20038;-84
2022/01/15 00:14:41;;;;;;;31.30;16.65;;;;;;;;;;4974759;28;20112;-84
2022/01/15 00:17:13;;;;;;;35.25;18.95;;;;;;;;;;4967466;28;20027;-83
2022/01/15 00:19:42;;;;;;;33.75;17.65;;;;;;;;;;4994659;28;20034;-84
2022/01/15 00:22:15;;;;;;;34.80;16.33;;;;;;;;;;4979563;28;20504;-85
2022/01/15 00:24:42;;;;;;;31.42;17.13;;;;;;;;;;4972245;28;20046;-85
2022/01/15 00:27:08;;;;;;;30.83;17.00;;;;;;;;;;4984686;28;20027;-86
2022/01/15 00:29:34;;;;;;;30.27;16.45;;;;;;;;;;4980712;28;20034;-84
2022/01/15 00:32:01;;;;;;;28.75;15.68;;;;;;;;;;4975147;28;20027;-83
2022/01/15 00:34:27;;;;;;;28.75;15.57;;;;;;;;;;4978504;28;20054;-84
2022/01/15 00:36:52;;;;;;;30.25;16.30;;;;;;;;;;4962105;28;20050;-86
2022/01/15 00:39:18;;;;;;;28.00;15.60;;;;;;;;;;4980317;28;20034;-83
2022/01/15 00:41:43;;;;;;;29.90;15.70;;;;;;;;;;4986633;28;20468;-83
2022/01/15 00:44:09;;;;;;;36.05;17.80;;;;;;;;;;4989151;28;20044;-82
2022/01/15 00:46:37;;;;;;;29.85;17.42;;;;;;;;;;4991575;28;20027;-85
2022/01/15 00:49:02;;;;;;;33.95;17.52;;;;;;;;;;4979007;28;20031;-84
2022/01/15 00:51:28;;;;;;;32.03;18.10;;;;;;;;;;4972860;28;20077;-83
2022/01/15 00:53:53;;;;;;;33.88;17.13;;;;;;;;;;4996834;28;20031;-83
2022/01/15 00:56:19;;;;;;;35.92;17.38;;;;;;;;;;4966147;28;20350;-83
2022/01/15 00:58:52;;;;;;;34.72;16.08;;;;;;;;;;4986251;28;20031;-83
2022/01/15 01:01:17;;;;;;;30.40;17.10;;;;;;;;;;4984964;28;20019;-83
2022/01/15 01:03:42;;;;;;;32.80;16.10;;;;;;;;;;4983425;28;20037;-84
2022/01/15 01:06:08;;;;;;;31.08;17.30;;;;;;;;;;4974676;28;20034;-82
2022/01/15 01:08:33;;;;;;;29.92;16.73;;;;;;;;;;4974396;28;20396;-84
2022/01/15 01:11:02;;;;;;;35.05;17.80;;;;;;;;;;4974201;28;20072;-83
2022/01/15 01:24:23;;;;;;;32.83;17.48;;;;;;;;;;4973812;28;20054;-84
2022/01/15 01:26:55;;;;;;;39.22;18.50;;;;;;;;;;4972122;28;20661;-82
2022/01/15 01:34:25;;;;;;;37.22;17.45;;;;;;;;;;4972293;28;20160;-83
2022/01/15 01:37:02;;;;;;;35.35;17.20;;;;;;;;;;4952955;28;20069;-82
2022/01/15 01:40:05;;;;;;;31.35;16.90;;;;;;;;;;4971148;28;20389;-82
2022/01/15 01:45:00;;;;;;;27.35;15.85;;;;;;;;;;4976793;28;20053;-85
2022/01/15 01:47:38;;;;;;;27.95;15.85;;;;;;;;;;4972210;28;20081;-83
2022/01/15 01:50:04;;;;;;;33.92;16.15;;;;;;;;;;4957773;28;20027;-85
2022/01/15 01:52:32;;;;;;;31.05;15.02;;;;;;;;;;4974545;28;20158;-87
2022/01/15 01:54:58;;;;;;;31.35;15.77;;;;;;;;;;4974066;28;20476;-84
2022/01/15 01:57:23;;;;;;;27.27;15.23;;;;;;;;;;4974326;28;20023;-84
2022/01/15 01:59:49;;;;;;;31.90;16.85;;;;;;;;;;4973567;28;20064;-84
2022/01/15 02:02:14;;;;;;;26.10;15.38;;;;;;;;;;4972521;28;20066;-84
2022/01/15 02:04:40;;;;;;;33.78;17.67;;;;;;;;;;4970766;28;20396;-85
2022/01/15 02:07:05;;;;;;;33.20;17.08;;;;;;;;;;4973542;28;20054;-85
2022/01/15 02:09:35;;;;;;;31.10;15.88;;;;;;;;;;4973199;28;20142;-84
2022/01/15 02:12:00;;;;;;;29.15;17.48;;;;;;;;;;4972746;28;20033;-84
2022/01/15 02:14:30;;;;;;;36.00;16.77;;;;;;;;;;4976191;28;20031;-85
2022/01/15 02:16:56;;;;;;;32.55;17.60;;;;;;;;;;4973188;28;20556;-84
2022/01/15 02:19:21;;;;;;;29.38;16.05;;;;;;;;;;4956413;28;20077;-85
2022/01/15 02:24:12;;;;;;;27.52;15.95;;;;;;;;;;4972469;28;20101;-84
2022/01/15 02:26:39;;;;;;;29.17;15.82;;;;;;;;;;4983869;28;20477;-84
2022/01/15 02:29:07;;;;;;;25.90;15.35;;;;;;;;;;4959580;28;20488;-85
2022/01/15 02:31:32;;;;;;;32.95;15.25;;;;;;;;;;4976084;28;20105;-84
2022/01/15 02:34:00;;;;;;;26.25;14.50;;;;;;;;;;4958234;28;20105;-84
2022/01/15 02:36:35;;;;;;;27.23;14.25;;;;;;;;;;4987290;28;20038;-85
2022/01/15 02:39:02;;;;;;;26.88;13.98;;;;;;;;;;4978770;28;20054;-84
2022/01/15 02:41:30;;;;;;;30.25;13.68;;;;;;;;;;4975829;28;20026;-85
2022/01/15 02:43:58;;;;;;;26.65;14.55;;;;;;;;;;4977421;28;20037;-85
2022/01/15 02:48:58;;;;;;;23.15;13.80;;;;;;;;;;4998237;28;20044;-85
2022/01/15 02:51:26;;;;;;;29.55;12.98;;;;;;;;;;5002810;28;20048;-84
2022/01/15 02:53:55;;;;;;;23.40;12.30;;;;;;;;;;4994765;28;20026;-83
2022/01/15 02:56:50;;;;;;;23.55;11.23;;;;;;;;;;4979668;28;20028;-84
2022/01/15 02:59:21;;;;;;;21.63;11.77;;;;;;;;;;4974752;28;20058;-85
2022/01/15 03:01:49;;;;;;;24.40;12.40;;;;;;;;;;4995313;28;20023;-84
2022/01/15 03:04:15;;;;;;;19.77;11.20;;;;;;;;;;4978973;28;20022;-85
2022/01/15 03:06:41;;;;;;;21.50;11.52;;;;;;;;;;4959840;28;20031;-84
2022/01/15 03:09:06;;;;;;;22.33;11.38;;;;;;;;;;4967103;28;20049;-85
2022/01/15 03:11:32;;;;;;;19.63;10.65;;;;;;;;;;4988435;28;20488;-84
2022/01/15 03:14:01;;;;;;;17.85;11.68;;;;;;;;;;4982511;28;20027;-86
2022/01/15 03:16:27;;;;;;;16.85;10.38;;;;;;;;;;4980515;28;20027;-86
2022/01/15 03:18:52;;;;;;;19.70;11.27;;;;;;;;;;4974727;28;20391;-85
2022/01/15 03:21:18;;;;;;;23.40;11.98;;;;;;;;;;4975019;28;20034;-85
2022/01/15 03:23:43;;;;;;;26.67;13.52;;;;;;;;;;4957459;28;20495;-86
2022/01/15 03:26:13;;;;;;;21.33;11.65;;;;;;;;;;4964933;28;20444;-84
2022/01/15 03:28:39;;;;;;;21.73;11.15;;;;;;;;;;4978998;28;20023;-86
2022/01/15 03:31:04;;;;;;;18.70;10.50;;;;;;;;;;4966407;28;20147;-85
2022/01/15 03:33:30;;;;;;;20.80;12.48;;;;;;;;;;4978925;28;20058;-84
2022/01/15 03:35:55;;;;;;;24.77;12.65;;;;;;;;;;4984779;28;20034;-84
2022/01/15 03:38:21;;;;;;;20.60;11.65;;;;;;;;;;4976585;28;20110;-86
2022/01/15 03:40:47;;;;;;;24.20;12.27;;;;;;;;;;4983731;28;20026;-86
2022/01/15 03:43:12;;;;;;;24.45;12.02;;;;;;;;;;4975975;28;20559;-86
2022/01/15 03:45:38;;;;;;;25.75;12.32;;;;;;;;;;4985849;28;20054;-83
2022/01/15 03:48:03;;;;;;;20.25;11.27;;;;;;;;;;4982538;28;20030;-84
2022/01/15 03:50:29;;;;;;;20.90;11.50;;;;;;;;;;4994346;28;20037;-83
2022/01/15 03:52:56;;;;;;;24.05;12.60;;;;;;;;;;4976669;28;20030;-83
2022/01/15 03:55:22;;;;;;;19.77;11.15;;;;;;;;;;4988553;28;20042;-85
2022/01/15 03:57:48;;;;;;;25.33;11.95;;;;;;;;;;4983443;28;20117;-86
2022/01/15 04:00:19;;;;;;;24.25;11.77;;;;;;;;;;4977024;28;20057;-85
2022/01/15 04:02:46;;;;;;;26.60;12.50;;;;;;;;;;4991719;28;20031;-85
2022/01/15 04:05:12;;;;;;;24.15;11.70;;;;;;;;;;4974185;28;20031;-84
2022/01/15 04:07:38;;;;;;;24.60;11.88;;;;;;;;;;4958872;28;20423;-85
2022/01/15 04:10:07;;;;;;;20.95;11.52;;;;;;;;;;4978397;28;20027;-86
2022/01/15 04:12:32;;;;;;;22.30;11.82;;;;;;;;;;4961626;28;20025;-85
2022/01/15 04:14:58;;;;;;;21.95;11.63;;;;;;;;;;4962107;28;20015;-85
2022/01/15 04:17:25;;;;;;;28.55;12.63;;;;;;;;;;4973791;28;20447;-86
2022/01/15 04:19:50;;;;;;;20.27;11.75;;;;;;;;;;4998718;28;20101;-85
2022/01/15 04:22:15;;;;;;;20.83;11.57;;;;;;;;;;4964099;28;20046;-85
2022/01/15 04:24:41;;;;;;;23.50;11.48;;;;;;;;;;4986316;28;20031;-86
2022/01/15 04:27:06;;;;;;;26.42;12.90;;;;;;;;;;4984789;28;20102;-85
2022/01/15 04:29:33;;;;;;;22.27;11.40;;;;;;;;;;4974807;28;20053;-85
2022/01/15 04:32:00;;;;;;;25.55;13.07;;;;;;;;;;4995396;28;20064;-85
2022/01/15 04:34:30;;;;;;;21.23;10.85;;;;;;;;;;4963912;28;20081;-84
2022/01/15 04:37:02;;;;;;;18.63;10.50;;;;;;;;;;4957300;29;20035;-83
2022/01/15 04:39:28;;;;;;;24.20;10.70;;;;;;;;;;4958800;29;20019;-84
2022/01/15 04:41:53;;;;;;;20.38;10.95;;;;;;;;;;4958469;29;20031;-82
2022/01/15 04:44:19;;;;;;;19.27;10.95;;;;;;;;;;4963149;28;20029;-84
2022/01/15 04:46:44;;;;;;;18.33;11.38;;;;;;;;;;4985457;28;20378;-84
2022/01/15 04:49:09;;;;;;;22.90;10.95;;;;;;;;;;4978001;28;20440;-82
2022/01/15 04:51:57;;;;;;;24.08;11.60;;;;;;;;;;4976860;28;20053;-83
2022/01/15 04:59:00;;;;;;;24.45;12.07;;;;;;;;;;4953221;28;20122;-82
2022/01/15 05:02:06;;;;;;;18.08;10.15;;;;;;;;;;4958713;28;20485;-84
2022/01/15 05:04:52;;;;;;;21.50;10.25;;;;;;;;;;4917278;29;20063;-86
2022/01/15 05:07:17;;;;;;;18.63;10.45;;;;;;;;;;4947470;28;20108;-83
2022/01/15 05:09:46;;;;;;;23.60;10.75;;;;;;;;;;4977370;28;20026;-83
2022/01/15 05:12:25;;;;;;;20.13;11.02;;;;;;;;;;4959401;28;20085;-84
2022/01/15 05:14:51;;;;;;;18.52;11.65;;;;;;;;;;4984976;28;20029;-83
2022/01/15 05:17:16;;;;;;;21.80;11.93;;;;;;;;;;4984101;28;20022;-83
2022/01/15 05:19:42;;;;;;;21.40;11.70;;;;;;;;;;4976076;28;20026;-85
2022/01/15 05:22:07;;;;;;;19.85;11.52;;;;;;;;;;4978458;28;20105;-86
2022/01/15 05:24:33;;;;;;;17.02;11.38;;;;;;;;;;4978081;28;20030;-85
2022/01/15 05:26:59;;;;;;;23.00;11.90;;;;;;;;;;4984627;28;20057;-85
2022/01/15 05:29:24;;;;;;;22.33;12.68;;;;;;;;;;4973510;28;20574;-86
2022/01/15 05:31:51;;;;;;;23.65;12.82;;;;;;;;;;4997232;28;20186;-86
2022/01/15 05:34:16;;;;;;;24.27;12.93;;;;;;;;;;4982531;28;20029;-86
2022/01/15 05:36:41;;;;;;;24.95;13.27;;;;;;;;;;4978395;28;20396;-86
2022/01/15 05:39:07;;;;;;;27.95;15.32;;;;;;;;;;4964753;28;20019;-83
2022/01/15 05:41:33;;;;;;;27.90;15.48;;;;;;;;;;4987108;28;20050;-84
2022/01/15 05:44:01;;;;;;;23.02;14.48;;;;;;;;;;4987340;28;20038;-85
2022/01/15 05:46:31;;;;;;;27.25;14.95;;;;;;;;;;4978483;28;20061;-86
2022/01/15 05:48:57;;;;;;;24.55;13.57;;;;;;;;;;4978753;28;20512;-86
2022/01/15 05:51:23;;;;;;;28.13;14.93;;;;;;;;;;4975713;28;20034;-83
2022/01/15 05:53:48;;;;;;;26.33;15.52;;;;;;;;;;5007575;28;20030;-82
2022/01/15 05:56:13;;;;;;;28.17;14.02;;;;;;;;;;4979531;28;20042;-84
2022/01/15 05:58:39;;;;;;;27.17;13.55;;;;;;;;;;4992912;28;20410;-83
2022/01/15 06:01:04;;;;;;;26.50;12.30;;;;;;;;;;5004442;28;20121;-84
2022/01/15 06:03:30;;;;;;;35.20;13.60;;;;;;;;;;4990747;28;20025;-85
2022/01/15 06:05:55;;;;;;;33.20;14.15;;;;;;;;;;4986902;28;20018;-84
2022/01/15 06:08:21;;;;;;;34.28;13.50;;;;;;;;;;4997393;28;20022;-84
2022/01/15 06:10:46;;;;;;;32.88;14.02;;;;;;;;;;4981446;28;20026;-84
2022/01/15 06:13:11;;;;;;;35.83;13.77;;;;;;;;;;4985487;28;20102;-85
2022/01/15 06:15:37;;;;;;;27.95;13.07;;;;;;;;;;4957044;28;20055;-85
2022/01/15 06:18:02;;;;;;;42.72;12.25;;;;;;;;;;4993682;28;20057;-84
2022/01/15 06:20:28;;;;;;;34.67;14.90;;;;;;;;;;4979632;28;20062;-85
2022/01/15 06:22:53;;;;;;;31.92;13.32;;;;;;;;;;4979124;28;20023;-84
2022/01/15 06:25:18;;;;;;;32.65;12.77;;;;;;;;;;4980230;28;20030;-86
2022/01/15 06:27:44;;;;;;;22.95;13.15;;;;;;;;;;4986253;28;20045;-85
2022/01/15 06:30:10;;;;;;;22.95;13.02;;;;;;;;;;4995258;28;20026;-85
2022/01/15 06:32:36;;;;;;;24.20;13.38;;;;;;;;;;4973568;28;20042;-85
2022/01/15 06:35:12;;;;;;;20.95;12.23;;;;;;;;;;4968502;28;20046;-86
2022/01/15 06:37:38;;;;;;;23.92;13.80;;;;;;;;;;4997654;28;20489;-85
2022/01/15 06:40:05;;;;;;;22.88;13.05;;;;;;;;;;4979658;28;20046;-86
2022/01/15 06:42:31;;;;;;;23.27;12.63;;;;;;;;;;4962295;28;20473;-86
2022/01/15 06:44:57;;;;;;;18.90;12.23;;;;;;;;;;4977565;28;20033;-86
2022/01/15 06:47:22;;;;;;;20.50;12.55;;;;;;;;;;4969463;28;20018;-86
2022/01/15 06:49:47;;;;;;;22.67;14.00;;;;;;;;;;4978439;28;20038;-86
2022/01/15 06:52:13;;;;;;;22.17;12.32;;;;;;;;;;4998103;28;20037;-86
2022/01/15 06:54:38;;;;;;;27.48;13.55;;;;;;;;;;4995604;28;20042;-85
2022/01/15 06:57:04;;;;;;;21.70;13.50;;;;;;;;;;4960958;28;20026;-87
2022/01/15 06:59:29;;;;;;;22.35;12.35;;;;;;;;;;4959570;28;20041;-86
2022/01/15 07:01:55;;;;;;;25.58;12.60;;;;;;;;;;4962605;28;20025;-85
2022/01/15 07:04:20;;;;;;;23.83;12.90;;;;;;;;;;4981086;28;20033;-86
2022/01/15 07:06:46;;;;;;;22.40;13.55;;;;;;;;;;4980849;28;20026;-86
2022/01/15 07:09:11;;;;;;;35.08;13.80;;;;;;;;;;4977493;28;20037;-86
2022/01/15 07:11:37;;;;;;;27.63;13.88;;;;;;;;;;4978115;28;20030;-86
2022/01/15 07:14:02;;;;;;;48.67;14.48;;;;;;;;;;4978819;28;20585;-86
2022/01/15 07:16:28;;;;;;;30.65;13.50;;;;;;;;;;4971409;28;20034;-87
2022/01/15 07:18:53;;;;;;;44.70;15.40;;;;;;;;;;4973842;28;20034;-86
2022/01/15 07:21:18;;;;;;;35.55;14.77;;;;;;;;;;4977292;28;20023;-86
2022/01/15 07:23:44;;;;;;;47.17;14.68;;;;;;;;;;4980642;28;20026;-87
2022/01/15 07:26:10;;;;;;;38.88;16.95;;;;;;;;;;4963700;28;20030;-86
2022/01/15 07:28:35;;;;;;;33.90;16.50;;;;;;;;;;4978050;28;20022;-85
2022/01/15 07:31:01;;;;;;;35.75;14.05;;;;;;;;;;4972786;28;20034;-87
2022/01/15 07:33:27;;;;;;;38.50;15.63;;;;;;;;;;4977002;28;20217;-87
2022/01/15 07:35:52;;;;;;;42.90;15.00;;;;;;;;;;4984843;28;20030;-85
2022/01/15 07:38:20;;;;;;;42.33;16.00;;;;;;;;;;4958917;28;20523;-86
2022/01/15 07:40:46;;;;;;;26.92;14.48;;;;;;;;;;4959888;28;20121;-87
2022/01/15 07:43:12;;;;;;;30.55;14.77;;;;;;;;;;4984678;28;20369;-85
2022/01/15 07:45:37;;;;;;;35.88;15.45;;;;;;;;;;4975765;28;20557;-87
2022/01/15 07:48:03;;;;;;;34.22;15.40;;;;;;;;;;4967181;28;20042;-85
2022/01/15 07:50:28;;;;;;;37.38;14.38;;;;;;;;;;4983417;28;20025;-86
2022/01/15 07:52:56;;;;;;;39.45;16.40;;;;;;;;;;4985176;28;20038;-86
2022/01/15 07:55:23;;;;;;;40.72;16.75;;;;;;;;;;4990771;28;20050;-86
2022/01/15 07:57:48;;;;;;;50.22;16.15;;;;;;;;;;4982078;28;20033;-87
2022/01/15 08:00:15;;;;;;;37.42;17.25;;;;;;;;;;4982527;28;20056;-87
2022/01/15 08:02:41;;;;;;;37.72;16.33;;;;;;;;;;4966731;28;20033;-86
2022/01/15 08:05:07;;;;;;;43.13;16.27;;;;;;;;;;4983353;28;20105;-86
2022/01/15 08:07:32;;;;;;;33.75;14.85;;;;;;;;;;4979715;28;20033;-87
2022/01/15 08:09:57;;;;;;;35.00;14.45;;;;;;;;;;4982872;28;20023;-86
2022/01/15 08:12:23;;;;;;;33.30;14.38;;;;;;;;;;4991412;28;20031;-86
2022/01/15 08:14:50;;;;;;;41.40;15.50;;;;;;;;;;4983347;28;20030;-86
2022/01/15 08:17:16;;;;;;;36.47;15.45;;;;;;;;;;4983489;28;20026;-85
2022/01/15 08:19:41;;;;;;;41.17;14.85;;;;;;;;;;4988104;28;20035;-86
2022/01/15 08:22:07;;;;;;;38.28;15.68;;;;;;;;;;4983870;28;20027;-86
2022/01/15 08:24:32;;;;;;;31.20;14.55;;;;;;;;;;4983576;28;20065;-86
2022/01/15 08:26:57;;;;;;;41.50;16.45;;;;;;;;;;4982875;28;20047;-85
2022/01/15 08:29:23;;;;;;;36.60;14.70;;;;;;;;;;4978228;28;20440;-85
2022/01/15 08:31:48;;;;;;;37.72;16.17;;;;;;;;;;4986725;28;20046;-86
2022/01/15 08:34:14;;;;;;;27.67;13.73;;;;;;;;;;4982636;28;20026;-86
2022/01/15 08:36:39;;;;;;;32.75;14.35;;;;;;;;;;4963332;28;20034;-86
2022/01/15 08:39:05;;;;;;;28.45;13.82;;;;;;;;;;4980384;28;20031;-85
2022/01/15 08:41:31;;;;;;;30.23;14.75;;;;;;;;;;4966715;28;20019;-86
2022/01/15 08:43:56;;;;;;;25.67;14.35;;;;;;;;;;4982695;28;20027;-85
2022/01/15 08:46:22;;;;;;;28.73;14.13;;;;;;;;;;4978749;28;20034;-87
2022/01/15 08:48:49;;;;;;;23.30;13.35;;;;;;;;;;4985872;28;20062;-86
2022/01/15 08:51:14;;;;;;;22.92;12.93;;;;;;;;;;5001714;28;20021;-86
2022/01/15 08:53:40;;;;;;;25.83;12.98;;;;;;;;;;4977642;28;20032;-85
2022/01/15 08:56:08;;;;;;;23.58;14.60;;;;;;;;;;4968389;28;20030;-86
2022/01/15 08:58:34;;;;;;;20.20;13.52;;;;;;;;;;4984714;28;20051;-85
2022/01/15 09:01:13;;;;;;;27.95;13.50;;;;;;;;;;4981671;28;20481;-86
2022/01/15 09:03:39;;;;;;;22.85;13.25;;;;;;;;;;4965574;28;20031;-87
2022/01/15 09:06:04;;;;;;;24.30;13.23;;;;;;;;;;4981197;28;20373;-86
2022/01/15 09:08:30;;;;;;;27.27;14.23;;;;;;;;;;4982280;28;20115;-86
2022/01/15 09:10:56;;;;;;;24.63;13.57;;;;;;;;;;4963970;28;20080;-86
2022/01/15 09:13:22;;;;;;;26.50;13.80;;;;;;;;;;4982062;28;20069;-87
2022/01/15 09:15:48;;;;;;;24.65;13.07;;;;;;;;;;4999050;28;20148;-87
2022/01/15 09:18:15;;;;;;;26.23;14.18;;;;;;;;;;5005897;28;20043;-88
2022/01/15 09:20:40;;;;;;;24.75;13.90;;;;;;;;;;4983488;28;20007;-88
2022/01/15 09:23:06;;;;;;;27.23;14.77;;;;;;;;;;4996242;28;20007;-88
2022/01/15 09:25:31;;;;;;;22.95;15.25;;;;;;;;;;5001211;28;20046;-87
2022/01/15 09:30:42;;;;;;;26.30;13.65;;;;;;;;;;5001293;28;20062;-88
2022/01/15 09:33:08;;;;;;;31.77;15.52;;;;;;;;;;4984330;28;20019;-89
2022/01/15 09:35:33;;;;;;;33.55;16.40;;;;;;;;;;4980941;28;20074;-88
2022/01/15 09:37:59;;;;;;;29.10;16.50;;;;;;;;;;4996373;28;20034;-90
2022/01/15 09:40:26;;;;;;;33.58;17.17;;;;;;;;;;5001299;28;20076;-87
2022/01/15 09:42:53;;;;;;;25.55;16.55;;;;;;;;;;5000749;28;20019;-90
2022/01/15 09:45:20;;;;;;;28.33;16.35;;;;;;;;;;4976547;28;20090;-86
2022/01/15 09:47:48;;;;;;;28.27;16.42;;;;;;;;;;4981012;28;20393;-88
2022/01/15 09:50:16;;;;;;;31.58;18.20;;;;;;;;;;4978551;28;20022;-87
2022/01/15 09:52:42;;;;;;;34.25;17.55;;;;;;;;;;4961701;28;20022;-87
2022/01/15 09:55:10;;;;;;;31.83;18.30;;;;;;;;;;4962763;28;20037;-87
2022/01/15 09:57:37;;;;;;;32.63;16.15;;;;;;;;;;4964435;28;20023;-87
2022/01/15 10:00:14;;;;;;;28.42;16.58;;;;;;;;;;4976820;28;20034;-87
2022/01/15 10:02:45;;;;;;;28.38;15.85;;;;;;;;;;4963027;28;20026;-88
2022/01/15 10:05:11;;;;;;;31.15;17.88;;;;;;;;;;4973804;28;20118;-87
2022/01/15 10:07:37;;;;;;;30.05;18.50;;;;;;;;;;4961410;28;20023;-87
2022/01/15 10:10:22;;;;;;;30.17;16.27;;;;;;;;;;4960711;28;20070;-86
2022/01/15 10:12:48;;;;;;;35.63;17.80;;;;;;;;;;4980340;28;20077;-88
2022/01/15 10:15:15;;;;;;;40.65;21.40;;;;;;;;;;4979667;28;20102;-88
2022/01/15 10:17:41;;;;;;;33.15;19.00;;;;;;;;;;4980961;28;20031;-88
2022/01/15 10:20:15;;;;;;;36.65;19.75;;;;;;;;;;4981181;28;20023;-87
2022/01/15 10:22:43;;;;;;;39.95;19.48;;;;;;;;;;4980075;28;20042;-87
2022/01/15 10:25:11;;;;;;;31.13;18.15;;;;;;;;;;4997270;28;20649;-87
2022/01/15 10:27:43;;;;;;;35.88;19.08;;;;;;;;;;4986374;28;20018;-86
2022/01/15 10:30:13;;;;;;;35.70;18.63;;;;;;;;;;5001393;28;20026;-86
2022/01/15 10:32:50;;;;;;;34.53;20.38;;;;;;;;;;4980404;28;20022;-87
2022/01/15 10:35:16;;;;;;;37.67;20.73;;;;;;;;;;4966575;28;20022;-88
2022/01/15 10:38:06;;;;;;;38.20;19.00;;;;;;;;;;4986312;28;20189;-87
2022/01/15 10:40:39;;;;;;;36.53;20.75;;;;;;;;;;4985948;28;20465;-83
2022/01/15 10:43:05;;;;;;;38.10;20.80;;;;;;;;;;4984967;28;20059;-87
2022/01/15 10:45:31;;;;;;;42.45;22.40;;;;;;;;;;5006755;28;20023;-84
2022/01/15 10:48:01;;;;;;;34.28;20.38;;;;;;;;;;4988906;28;20105;-86
2022/01/15 10:50:33;;;;;;;41.38;22.30;;;;;;;;;;4962111;28;20026;-85
2022/01/15 10:53:04;;;;;;;;;;;;;;;;;;4988199;28;20677;-85
2022/01/15 10:55:31;;;;;;;39.20;19.08;;;;;;;;;;4973064;28;19909;-87
2022/01/15 10:58:05;;;;;;;40.92;20.55;;;;;;;;;;4997383;28;20036;-85
2022/01/15 11:00:46;;;;;;;42.28;21.15;;;;;;;;;;4980940;28;20121;-86
2022/01/15 11:03:17;;;;;;;50.10;19.92;;;;;;;;;;4997653;28;20018;-87
2022/01/15 11:05:50;;;;;;;43.10;22.02;;;;;;;;;;4969460;28;20033;-87
2022/01/15 11:08:26;;;;;;;42.15;22.17;;;;;;;;;;4953189;28;20629;-86
2022/01/15 11:11:05;;;;;;;41.33;22.38;;;;;;;;;;4989481;28;20081;-86
2022/01/15 11:13:37;;;;;;;44.90;22.45;;;;;;;;;;4974102;28;20079;-87
2022/01/15 11:16:07;;;;;;;45.67;22.75;;;;;;;;;;4987771;28;20035;-89
2022/01/15 11:18:35;;;;;;;38.53;21.50;;;;;;;;;;4995947;28;20037;-86
2022/01/15 11:21:06;;;;;;;42.20;20.67;;;;;;;;;;4959444;28;20477;-85
2022/01/15 11:23:33;;;;;;;42.50;21.60;;;;;;;;;;4959982;28;20370;-83
2022/01/15 11:26:01;;;;;;;40.97;22.65;;;;;;;;;;4984959;28;20014;-82
2022/01/15 11:28:30;;;;;;;33.63;20.70;;;;;;;;;;4982151;28;20023;-84
2022/01/15 11:31:01;;;;;;;37.72;21.80;;;;;;;;;;4958299;28;20058;-83
2022/01/15 11:33:30;;;;;;;39.72;22.40;;;;;;;;;;4963421;28;20044;-83
2022/01/15 11:35:56;;;;;;;38.80;22.00;;;;;;;;;;4975926;28;20039;-84
2022/01/15 11:38:34;;;;;;;48.42;23.50;;;;;;;;;;4976379;28;20027;-86
2022/01/15 11:40:59;;;;;;;38.40;22.92;;;;;;;;;;4975753;28;20054;-83
2022/01/15 11:43:24;;;;;;;47.75;24.15;;;;;;;;;;4982952;28;20388;-84
2022/01/15 11:45:51;;;;;;;42.88;23.40;;;;;;;;;;4966464;28;20026;-83
2022/01/15 11:48:26;;;;;;;40.05;21.90;;;;;;;;;;4964140;28;20015;-83
2022/01/15 11:51:13;;;;;;;48.00;24.92;;;;;;;;;;4978715;28;20104;-84
2022/01/15 11:53:49;;;;;;;38.40;22.13;;;;;;;;;;4975992;28;20435;-84
2022/01/15 11:56:23;;;;;;;40.28;21.52;;;;;;;;;;4987513;28;20026;-85
2022/01/15 11:58:49;;;;;;;46.85;23.85;;;;;;;;;;4966212;28;20022;-84
2022/01/15 12:01:41;;;;;;;41.03;22.50;;;;;;;;;;4956798;29;20492;-84
2022/01/15 12:04:22;;;;;;;39.75;22.40;;;;;;;;;;4973444;28;20106;-85
2022/01/15 12:07:03;;;;;;;44.92;23.60;;;;;;;;;;4991991;28;20022;-85
2022/01/15 12:09:49;;;;;;;41.97;22.52;;;;;;;;;;4995233;28;20018;-85
2022/01/15 12:12:25;;;;;;;44.97;22.20;;;;;;;;;;4994019;28;20550;-85
2022/01/15 12:14:54;;;;;;;47.55;23.77;;;;;;;;;;4973806;28;20042;-84
2022/01/15 12:17:39;;;;;;;46.28;23.92;;;;;;;;;;4975977;28;20058;-82
2022/01/15 12:20:27;;;;;;;45.10;22.98;;;;;;;;;;4983549;28;20105;-85
2022/01/15 12:22:55;;;;;;;42.75;24.20;;;;;;;;;;4958793;28;20031;-83
2022/01/15 12:25:20;;;;;;;47.70;22.92;;;;;;;;;;4955377;28;20038;-84
2022/01/15 12:28:09;;;;;;;41.05;22.00;;;;;;;;;;4982375;28;20097;-83
2022/01/15 12:30:40;;;;;;;33.53;20.17;;;;;;;;;;4980384;28;20018;-84
2022/01/15 12:33:10;;;;;;;39.38;21.45;;;;;;;;;;4980274;28;20503;-83
2022/01/15 12:35:37;;;;;;;35.45;20.08;;;;;;;;;;4983074;28;20035;-83
2022/01/15 12:38:13;;;;;;;36.90;21.60;;;;;;;;;;4978474;28;20030;-83
2022/01/15 12:40:41;;;;;;;43.00;20.80;;;;;;;;;;4961099;28;20031;-86
2022/01/15 12:43:26;;;;;;;40.10;21.15;;;;;;;;;;4976057;28;20038;-84
2022/01/15 12:45:56;;;;;;;36.25;20.48;;;;;;;;;;4985823;28;20029;-85
2022/01/15 12:48:24;;;;;;;36.88;20.35;;;;;;;;;;4979480;28;20023;-85
2022/01/15 12:50:55;;;;;;;44.45;21.08;;;;;;;;;;4961393;28;20023;-86
2022/01/15 12:53:26;;;;;;;36.83;21.40;;;;;;;;;;4978553;28;20401;-85
2022/01/15 12:55:52;;;;;;;39.65;22.00;;;;;;;;;;4979258;28;20026;-85
2022/01/15 12:58:21;;;;;;;43.70;22.27;;;;;;;;;;4984702;28;20089;-83
2022/01/15 13:00:47;;;;;;;35.63;20.92;;;;;;;;;;4970532;28;20034;-85
2022/01/15 13:03:15;;;;;;;40.30;22.70;;;;;;;;;;4985324;28;20105;-85
2022/01/15 13:05:45;;;;;;;36.33;20.15;;;;;;;;;;4984918;28;20540;-85
2022/01/15 13:08:18;;;;;;;43.40;23.02;;;;;;;;;;4989674;28;20019;-84
2022/01/15 13:10:49;;;;;;;44.83;22.83;;;;;;;;;;4998356;28;20026;-84
2022/01/15 13:13:24;;;;;;;44.72;23.30;;;;;;;;;;4981122;28;20026;-86
2022/01/15 13:15:59;;;;;;;40.72;21.38;;;;;;;;;;4976836;28;20027;-87
2022/01/15 13:18:28;;;;;;;45.00;22.10;;;;;;;;;;4975241;28;20026;-86
2022/01/15 13:20:54;;;;;;;44.78;24.02;;;;;;;;;;4977279;28;20216;-85
2022/01/15 13:23:21;;;;;;;49.97;23.60;;;;;;;;;;4974901;28;20699;-84
2022/01/15 13:25:48;;;;;;;48.45;22.95;;;;;;;;;;4957549;28;20030;-85
2022/01/15 13:28:14;;;;;;;48.35;24.05;;;;;;;;;;4978682;28;20023;-86
2022/01/15 13:30:40;;;;;;;46.85;24.40;;;;;;;;;;4975336;28;20078;-86
2022/01/15 13:33:08;;;;;;;51.45;23.98;;;;;;;;;;4958965;28;20026;-85
2022/01/15 13:35:39;;;;;;;50.40;24.15;;;;;;;;;;4976103;28;20031;-84
2022/01/15 13:38:14;;;;;;;43.55;23.40;;;;;;;;;;4976644;28;20031;-85
2022/01/15 13:40:47;;;;;;;54.85;25.17;;;;;;;;;;4971918;28;20143;-85
2022/01/15 13:43:29;;;;;;;54.10;25.95;;;;;;;;;;4975806;28;20034;-85
2022/01/15 13:46:05;;;;;;;53.55;24.75;;;;;;;;;;4973249;28;20041;-86
2022/01/15 13:48:30;;;;;;;56.85;26.27;;;;;;;;;;4975370;28;20026;-85
2022/01/15 13:53:48;;;;;;;69.25;27.60;;;;;;;;;;4975088;28;20050;-83
2022/01/15 13:56:21;;;;;;;58.33;25.80;;;;;;;;;;4982180;28;20022;-86
2022/01/15 13:58:48;;;;;;;57.75;25.33;;;;;;;;;;4978562;28;20027;-85
2022/01/15 14:01:20;;;;;;;70.85;27.00;;;;;;;;;;4959941;28;20078;-86
2022/01/15 14:03:46;;;;;;;57.35;25.58;;;;;;;;;;4976918;28;20062;-86
2022/01/15 14:06:11;;;;;;;61.30;25.73;;;;;;;;;;4975825;28;20031;-85
2022/01/15 14:08:37;;;;;;;59.92;25.20;;;;;;;;;;4958726;28;20073;-86
2022/01/15 14:11:12;;;;;;;63.58;26.85;;;;;;;;;;4978981;28;20064;-86
2022/01/15 14:13:38;;;;;;;67.22;26.50;;;;;;;;;;4967536;28;20425;-86
2022/01/15 14:16:25;;;;;;;65.70;26.90;;;;;;;;;;4976733;28;20114;-86
2022/01/15 14:22:21;;;;;;;46.72;21.70;;;;;;;;;;4969135;28;20026;-86
2022/01/15 14:24:50;;;;;;;68.10;26.50;;;;;;;;;;4973181;28;20031;-87
2022/01/15 14:27:24;;;;;;;67.20;23.80;;;;;;;;;;4975094;28;20420;-87
2022/01/15 14:29:51;;;;;;;59.83;24.98;;;;;;;;;;4977172;28;20038;-87
2022/01/15 14:32:16;;;;;;;57.65;22.88;;;;;;;;;;4959083;28;20040;-85
2022/01/15 14:34:42;;;;;;;77.65;25.35;;;;;;;;;;4976822;28;20035;-86
2022/01/15 14:37:09;;;;;;;62.80;24.77;;;;;;;;;;4975542;28;20034;-86
2022/01/15 14:39:35;;;;;;;54.22;23.90;;;;;;;;;;4964782;28;20062;-86
2022/01/15 14:42:00;;;;;;;69.57;28.20;;;;;;;;;;4977978;28;20396;-87
2022/01/15 14:44:25;;;;;;;58.40;22.95;;;;;;;;;;4976502;28;20524;-86
2022/01/15 14:46:51;;;;;;;71.53;24.60;;;;;;;;;;4962681;28;20333;-86
2022/01/15 14:49:16;;;;;;;60.38;23.80;;;;;;;;;;4977222;28;20022;-87
2022/01/15 14:51:42;;;;;;;46.30;22.60;;;;;;;;;;4974606;28;20034;-88
2022/01/15 14:54:13;;;;;;;49.72;25.85;;;;;;;;;;4977080;28;20529;-86
2022/01/15 14:56:39;;;;;;;102.88;52.20;;;;;;;;;;4965170;28;20073;-86
2022/01/15 14:59:04;;;;;;;64.60;26.92;;;;;;;;;;4979525;28;20030;-87